Wetterdaten: aktuell Freitag, 07.08.2020 21:00
Datum Zeit Temp. A. Feuchte A. Luftdruck Regen Wind Richtung Richtung Sonnenschein ET UV Solar Taupunkt Windchill Windben
07.08.2020 21:00 27,5 C 52 % 1019,0 hPa 0,0 l/m 0,0 km/h (0 Bft) O-NO 68 0 min 0,051 mm 0,0 UV-I 0 W/m 16,7 C 27,5 C 0,0 km/h (0 Bft)
07.08.2020 20:00 30,1 C 46 % 1018,7 hPa 0,0 l/m 0,0 km/h (0 Bft) O-NO 68 0 min 0,152 mm 0,0 UV-I 25 W/m 17,2 C 30,1 C 0,0 km/h (0 Bft)
07.08.2020 19:00 31,6 C 41 % 1018,9 hPa 0,0 l/m 0,0 km/h (0 Bft) O-NO 69 30 min 0,305 mm 0,0 UV-I 47 W/m 16,7 C 31,6 C 0,0 km/h (0 Bft)
07.08.2020 18:00 32,8 C 38 % 1019,1 hPa 0,0 l/m 1,2 km/h (1 Bft) N-NW 346 60 min 0,359 mm 1,0 UV-I 322 W/m 16,6 C 32,8 C 4,8 km/h (1 Bft)
07.08.2020 17:00 33,5 C 36 % 1019,4 hPa 0,0 l/m 1,2 km/h (1 Bft) O-NO 65 60 min 0,457 mm 2,0 UV-I 485 W/m 16,3 C 33,5 C 9,7 km/h (2 Bft)
07.08.2020 16:00 33,4 C 37 % 1019,7 hPa 0,0 l/m 0,0 km/h (0 Bft) O-NO 67 60 min 0,457 mm 3,2 UV-I 606 W/m 16,7 C 33,4 C 8,0 km/h (2 Bft)
07.08.2020 15:00 31,8 C 40 % 1020,1 hPa 0,0 l/m 0,0 km/h (0 Bft) O-NO 67 60 min 0,508 mm 4,3 UV-I 696 W/m 16,5 C 31,8 C 1,6 km/h (1 Bft)
07.08.2020 14:00 31,3 C 41 % 1020,5 hPa 0,0 l/m 1,6 km/h (1 Bft) O-NO 67 60 min 0,533 mm 5,2 UV-I 754 W/m 16,4 C 31,3 C 8,0 km/h (2 Bft)
07.08.2020 13:00 30,4 C 43 % 1021,0 hPa 0,0 l/m 0,0 km/h (0 Bft) O-NO 67 60 min 0,508 mm 5,3 UV-I 761 W/m 16,4 C 30,4 C 6,4 km/h (2 Bft)
07.08.2020 12:00 29,3 C 44 % 1021,2 hPa 0,0 l/m 0,0 km/h (0 Bft) S-SO 157 60 min 0,457 mm 4,9 UV-I 724 W/m 15,8 C 29,3 C 1,6 km/h (1 Bft)
07.08.2020 11:00 28,1 C 48 % 1021,7 hPa 0,0 l/m 0,0 km/h (0 Bft) N 0 55 min 0,330 mm 3,9 UV-I 645 W/m 16,0 C 28,1 C 0,0 km/h (0 Bft)
07.08.2020 10:00 25,4 C 56 % 1021,8 hPa 0,0 l/m 0,0 km/h (0 Bft) O 90 10 min 0,102 mm 2,6 UV-I 512 W/m 16,0 C 25,4 C 1,6 km/h (1 Bft)
07.08.2020 09:00 21,3 C 67 % 1022,1 hPa 0,0 l/m 0,0 km/h (0 Bft) O 90 0 min 0,025 mm 1,2 UV-I 56 W/m 14,9 C 21,3 C 1,6 km/h (1 Bft)
07.08.2020 08:00 18,9 C 76 % 1021,9 hPa 0,0 l/m 0,0 km/h (0 Bft) N 0 50 min 0,076 mm 0,6 UV-I 56 W/m 14,6 C 18,9 C 0,0 km/h (0 Bft)
07.08.2020 07:00 16,6 C 87 % 1021,6 hPa 0,0 l/m 0,0 km/h (0 Bft) N 0 15 min 0,025 mm 0,0 UV-I 100 W/m 14,4 C 16,6 C 0,0 km/h (0 Bft)
07.08.2020 06:00 15,5 C 86 % 1021,3 hPa 0,0 l/m 0,0 km/h (0 Bft) O-NO 63 0 min 0,025 mm 0,0 UV-I 9 W/m 13,2 C 15,5 C 0,0 km/h (0 Bft)
07.08.2020 05:00 15,9 C 84 % 1021,0 hPa 0,0 l/m 0,0 km/h (0 Bft) N 0 0 min 0,025 mm 0,0 UV-I 0 W/m 13,2 C 15,9 C 0,0 km/h (0 Bft)
07.08.2020 04:00 16,9 C 82 % 1020,9 hPa 0,0 l/m 0,0 km/h (0 Bft) N 0 0 min 0,025 mm 0,0 UV-I 0 W/m 13,8 C 16,9 C 0,0 km/h (0 Bft)
07.08.2020 03:00 18,2 C 79 % 1021,0 hPa 0,0 l/m 0,0 km/h (0 Bft) N 0 0 min 0,025 mm 0,0 UV-I 0 W/m 14,5 C 18,2 C 0,0 km/h (0 Bft)
07.08.2020 02:00 18,9 C 76 % 1021,1 hPa 0,0 l/m 0,0 km/h (0 Bft) N 0 0 min 0,025 mm 0,0 UV-I 0 W/m 14,6 C 18,9 C 0,0 km/h (0 Bft)
07.08.2020 01:00 19,3 C 70 % 1021,1 hPa 0,0 l/m 0,0 km/h (0 Bft) N 0 0 min 0,025 mm 0,0 UV-I 0 W/m 13,7 C 19,3 C 0,0 km/h (0 Bft)
07.08.2020 00:00 20,5 C 63 % 1021,2 hPa 0,0 l/m 0,0 km/h (0 Bft) N 0 0 min 0,051 mm 0,0 UV-I 0 W/m 13,2 C 20,5 C 0,0 km/h (0 Bft)
_ Min-Zeit 06:05 15:50 20:00 - 00:00 - - - - - - 06:05 06:05 00:00
Minimum _ 15,4 C 35 % 1018,7 hPa - 0,0 km/h (0 Bft) - - - - - - 13,1 C 15,4 C 0,0 km/h (0 Bft)
_ Max-Zeit 17:20 06:25 08:35 00:00 13:05 - - 06:50 14:00 12:50 12:50 20:45 17:15 15:35
Maximum _ 33,9 C 87 % 1022,1 hPa 0,0 l/m 3,2 km/h
O-NO (1 Bft)
- - 5 min 0,533 mm 5,4 UV-I 770 W/m 17,4 C 33,8 C 14,5 km/h
NO (3 Bft)
Durchschnitt _ 24,9 C 59 % 1020,7 hPa #0,0 l/m 0,2 km/h (0 Bft) O-NO - #9:40 h #4,064 mm 3,1 UV-I 382 W/m 15,3 C 24,9 C 2,1 km/h (1 Bft)